ORKK/KIK METAR and TAF weather

Enter ICAO airport designator
Station Type Date Time Source
ORKK METAR 2011/08/15 06:55 UTC NOAA

ORKK 150655Z 30010KT 9999 CLR 37/04 A2974 RMK SLP116


Station Type Date Time Source
ORKK Decoded METAR 2011/08/15 06:55 UTC NOAA

Station name not available
Aug 15, 2011 - 02:55 AM EDT / 2011.08.15 0655 UTC
Wind: from the WNW (300 degrees) at 12 MPH (10 KT):0
Visibility: greater than 7 mile(s):0
Sky conditions: clear
Temperature: 98 F (37 C)
Dew Point: 39 F (4 C)
Relative Humidity: 12%
Pressure (altimeter): 29.74 in. Hg (1007 hPa)
ob: ORKK 150655Z 30010KT 9999 CLR 37/04 A2974 RMK SLP116
cycle: 7

Station Type Date Time Source
ORKK TAF UTC NOAA

Error!


Example: see airport list